Time;durP1;ratioP1;P1;durP2;ratioP2;P2;SDS_P1;SDS_P2;PMS_P1;PMS_P2;Temp;Humidity;BMP_temperature;BMP_pressure;BME280_temperature;BME280_humidity;BME280_pressure;Samples;Min_cycle;Max_cycle;Signal;HPM_P1;HPM_P2
2023/03/08 00:00:17;;;;;;;3.97;1.52;;;26.70;51.80;;;;;;5114135;28;20203;-76
2023/03/08 00:02:48;;;;;;;4.10;1.40;;;26.80;51.50;;;;;;5093274;28;20278;-76
2023/03/08 00:05:19;;;;;;;7.63;1.27;;;26.80;50.60;;;;;;5092632;28;20196;-76
2023/03/08 00:07:50;;;;;;;3.92;1.23;;;27.00;50.20;;;;;;5092923;28;20198;-76
2023/03/08 00:10:24;;;;;;;4.78;1.30;;;27.00;50.20;;;;;;5099700;28;20583;-76
2023/03/08 00:12:55;;;;;;;4.18;1.23;;;27.10;50.80;;;;;;5107194;28;20195;-76
2023/03/08 00:15:26;;;;;;;4.40;1.38;;;27.20;48.10;;;;;;5095873;28;20225;-76
2023/03/08 00:18:02;;;;;;;4.65;1.40;;;27.20;48.20;;;;;;5108873;28;20206;-75
2023/03/08 00:20:35;;;;;;;7.78;1.40;;;27.30;47.60;;;;;;5112279;28;20190;-75
2023/03/08 00:23:06;;;;;;;7.32;1.52;;;27.30;48.00;;;;;;5101949;28;20198;-76
2023/03/08 00:25:39;;;;;;;3.75;1.10;;;27.40;47.80;;;;;;5093383;28;20231;-75
2023/03/08 00:28:10;;;;;;;7.32;1.48;;;27.40;47.60;;;;;;5107131;28;20199;-76
2023/03/08 00:30:42;;;;;;;3.22;1.13;;;27.40;48.20;;;;;;5104045;28;20219;-76
2023/03/08 00:33:13;;;;;;;2.75;1.00;;;27.40;47.50;;;;;;5109912;28;20211;-76
2023/03/08 00:35:44;;;;;;;4.68;1.30;;;27.50;47.00;;;;;;5111624;27;20197;-76
2023/03/08 00:38:15;;;;;;;4.85;1.50;;;27.50;47.70;;;;;;5098181;28;20217;-78
2023/03/08 00:40:48;;;;;;;2.78;0.90;;;27.50;47.50;;;;;;5098047;28;20195;-78
2023/03/08 00:43:19;;;;;;;6.38;1.20;;;27.50;48.60;;;;;;5105503;28;20202;-78
2023/03/08 00:45:50;;;;;;;4.95;1.25;;;27.50;46.30;;;;;;5099238;28;20204;-78
2023/03/08 00:48:21;;;;;;;7.32;1.63;;;27.50;46.50;;;;;;5094392;28;20187;-77
2023/03/08 00:50:52;;;;;;;3.55;1.42;;;27.50;46.60;;;;;;5105115;28;20313;-77
2023/03/08 00:53:24;;;;;;;9.60;1.77;;;27.50;47.80;;;;;;5096293;28;20195;-78
2023/03/08 00:55:59;;;;;;;3.05;1.10;;;27.60;47.70;;;;;;5108132;28;20199;-78
2023/03/08 00:58:31;;;;;;;4.35;1.35;;;27.70;47.00;;;;;;5095083;28;20201;-77
2023/03/08 01:01:02;;;;;;;3.70;1.48;;;27.80;46.50;;;;;;5096343;28;20209;-77
2023/03/08 01:03:33;;;;;;;6.07;1.42;;;27.80;45.20;;;;;;5102484;28;20660;-77
2023/03/08 01:06:10;;;;;;;5.43;1.20;;;27.80;46.10;;;;;;5106218;28;20254;-77
2023/03/08 01:08:41;;;;;;;5.57;1.30;;;28.00;45.80;;;;;;5099948;28;20191;-77
2023/03/08 01:11:20;;;;;;;5.35;1.50;;;28.00;45.60;;;;;;5091832;28;20238;-77
2023/03/08 01:13:51;;;;;;;4.88;1.40;;;28.00;43.90;;;;;;5091892;28;20233;-78
2023/03/08 01:16:23;;;;;;;6.70;1.40;;;28.00;44.30;;;;;;5110437;28;20199;-77
2023/03/08 01:18:55;;;;;;;4.18;1.15;;;28.00;44.80;;;;;;5104152;28;20202;-78
2023/03/08 01:21:27;;;;;;;2.75;1.00;;;28.10;45.50;;;;;;5099318;28;20661;-77
2023/03/08 01:23:58;;;;;;;5.72;1.20;;;28.20;45.30;;;;;;5099563;28;20199;-78
2023/03/08 01:26:31;;;;;;;4.82;1.42;;;28.30;45.20;;;;;;5096647;28;20998;-77
2023/03/08 01:29:02;;;;;;;4.53;1.00;;;28.40;44.90;;;;;;5112497;28;20206;-78
2023/03/08 01:31:33;;;;;;;2.38;0.90;;;28.50;42.90;;;;;;5104876;27;20261;-78
2023/03/08 01:34:04;;;;;;;6.45;1.80;;;28.60;42.20;;;;;;5094160;28;20203;-77
2023/03/08 01:36:36;;;;;;;4.40;1.20;;;28.70;42.90;;;;;;5101372;28;20199;-78
2023/03/08 01:39:07;;;;;;;7.72;1.10;;;28.80;41.30;;;;;;5094672;28;20237;-77
2023/03/08 01:41:40;;;;;;;2.50;0.98;;;28.80;41.10;;;;;;5096515;28;20187;-80
2023/03/08 01:44:17;;;;;;;6.75;1.33;;;28.90;40.80;;;;;;5120488;28;20199;-77
2023/03/08 01:46:48;;;;;;;4.85;1.27;;;29.00;40.40;;;;;;5105740;28;20195;-78
2023/03/08 01:49:21;;;;;;;3.67;1.02;;;28.90;40.20;;;;;;5105965;28;20201;-77
2023/03/08 01:51:57;;;;;;;5.90;1.23;;;28.90;39.40;;;;;;5100727;28;20226;-79
2023/03/08 01:54:31;;;;;;;3.53;0.98;;;29.00;38.70;;;;;;5091171;28;20213;-77
2023/03/08 01:57:07;;;;;;;2.63;0.93;;;28.90;39.70;;;;;;5090365;28;20191;-77
2023/03/08 01:59:41;;;;;;;3.47;1.17;;;29.10;39.70;;;;;;5100801;28;20592;-78
2023/03/08 02:02:13;;;;;;;6.95;1.15;;;29.00;38.60;;;;;;5100409;28;20569;-79
2023/03/08 02:04:45;;;;;;;4.70;0.90;;;29.10;39.90;;;;;;5107921;28;20202;-79
2023/03/08 02:07:17;;;;;;;3.45;1.25;;;29.20;40.40;;;;;;5097360;28;20615;-79
2023/03/08 02:09:50;;;;;;;3.72;1.10;;;29.40;39.70;;;;;;5094667;28;20557;-78
2023/03/08 02:12:25;;;;;;;3.67;1.20;;;29.30;39.90;;;;;;5109601;28;20202;-78
2023/03/08 02:14:57;;;;;;;3.35;0.88;;;29.40;39.70;;;;;;5102973;28;20537;-77
2023/03/08 02:17:29;;;;;;;2.15;0.88;;;29.40;38.50;;;;;;5096237;28;20207;-78
2023/03/08 02:20:08;;;;;;;3.47;1.00;;;29.40;39.70;;;;;;5090863;28;20665;-78
2023/03/08 02:22:45;;;;;;;4.07;0.93;;;29.40;38.40;;;;;;5106290;28;20221;-78
2023/03/08 02:25:18;;;;;;;3.65;1.30;;;29.50;39.10;;;;;;5110003;28;20198;-78
2023/03/08 02:27:50;;;;;;;4.28;1.20;;;29.70;44.70;;;;;;5110249;28;20205;-78
2023/03/08 02:30:27;;;;;;;5.60;1.58;;;29.70;48.30;;;;;;5110611;28;20194;-79
2023/03/08 02:32:58;;;;;;;4.90;1.20;;;29.70;51.60;;;;;;5098838;28;20191;-79
2023/03/08 02:35:30;;;;;;;6.03;1.50;;;29.50;55.50;;;;;;5091031;28;20196;-78
2023/03/08 02:38:03;;;;;;;5.93;1.40;;;29.50;55.30;;;;;;5090669;28;20219;-78
2023/03/08 02:40:34;;;;;;;7.63;1.80;;;29.50;56.10;;;;;;5098334;28;20218;-78
2023/03/08 02:43:07;;;;;;;8.45;1.65;;;29.50;56.10;;;;;;5099372;28;20210;-78
2023/03/08 02:45:38;;;;;;;6.93;1.55;;;29.60;57.10;;;;;;5106611;28;20666;-78
2023/03/08 02:48:10;;;;;;;6.05;1.60;;;29.60;57.10;;;;;;5096549;28;20195;-79
2023/03/08 02:50:41;;;;;;;5.35;1.70;;;29.70;56.40;;;;;;5090730;28;20229;-78
2023/03/08 02:53:14;;;;;;;5.30;1.42;;;29.80;56.60;;;;;;5093047;28;20199;-78
2023/03/08 02:55:45;;;;;;;7.15;1.60;;;29.80;57.20;;;;;;5110113;28;20186;-79
2023/03/08 02:58:16;;;;;;;5.68;1.77;;;29.90;57.30;;;;;;5111013;28;20201;-78
2023/03/08 03:00:47;;;;;;;5.45;1.60;;;29.90;56.70;;;;;;5109652;28;20574;-78
2023/03/08 03:03:19;;;;;;;4.43;1.48;;;29.90;56.70;;;;;;5106853;28;20206;-79
2023/03/08 03:05:50;;;;;;;5.07;1.58;;;29.90;56.20;;;;;;5097412;28;20191;-78
2023/03/08 03:08:23;;;;;;;4.53;1.65;;;29.90;56.60;;;;;;5100165;28;20206;-78
2023/03/08 03:10:54;;;;;;;6.45;1.55;;;30.00;56.50;;;;;;5110586;28;20218;-79
2023/03/08 03:13:25;;;;;;;8.70;1.50;;;30.00;56.90;;;;;;5097938;28;20642;-78
2023/03/08 03:15:57;;;;;;;6.90;1.75;;;30.00;57.10;;;;;;5104711;28;20573;-78
2023/03/08 03:18:28;;;;;;;7.03;1.40;;;29.90;56.10;;;;;;5094258;28;20203;-77
2023/03/08 03:21:04;;;;;;;5.72;1.58;;;30.00;55.50;;;;;;5110007;28;20202;-77
2023/03/08 03:23:38;;;;;;;6.93;1.45;;;29.90;54.90;;;;;;5108059;28;20680;-77
2023/03/08 03:26:11;;;;;;;5.10;1.40;;;30.00;54.80;;;;;;5101445;28;20230;-77
2023/03/08 03:28:42;;;;;;;5.22;1.38;;;30.10;54.10;;;;;;5109370;28;20198;-78
2023/03/08 03:31:16;;;;;;;7.97;1.75;;;30.10;54.70;;;;;;5096939;28;20218;-77
2023/03/08 03:33:47;;;;;;;6.20;1.55;;;30.10;54.40;;;;;;5108445;28;20202;-78
2023/03/08 03:36:20;;;;;;;3.92;1.20;;;30.00;54.80;;;;;;5096829;28;20210;-78
2023/03/08 03:38:53;;;;;;;1.80;1.20;;;30.00;55.90;;;;;;5093743;28;20227;-79
2023/03/08 03:41:25;;;;;;;4.20;1.30;;;30.00;56.30;;;;;;5094257;28;20200;-78
2023/03/08 03:43:57;;;;;;;5.97;1.55;;;29.90;54.70;;;;;;5106959;28;20198;-78
2023/03/08 03:46:28;;;;;;;4.13;1.50;;;29.80;54.20;;;;;;5109286;28;20202;-78
2023/03/08 03:48:59;;;;;;;5.93;1.25;;;29.90;55.50;;;;;;5114549;28;20676;-78
2023/03/08 03:51:30;;;;;;;4.47;1.27;;;29.90;54.60;;;;;;5098407;28;20234;-77
2023/03/08 03:54:03;;;;;;;4.15;1.50;;;29.70;55.10;;;;;;5094750;28;20203;-78
2023/03/08 03:56:34;;;;;;;6.95;1.55;;;29.50;54.90;;;;;;5100362;28;20194;-78
2023/03/08 03:59:05;;;;;;;8.48;1.88;;;29.40;55.60;;;;;;5111112;28;20199;-78
2023/03/08 04:01:36;;;;;;;7.13;1.20;;;29.50;55.80;;;;;;5113535;28;20226;-79
2023/03/08 04:04:08;;;;;;;4.22;1.10;;;29.50;56.40;;;;;;5105759;28;20221;-78
2023/03/08 04:06:39;;;;;;;4.78;1.25;;;29.60;57.00;;;;;;5103577;28;20662;-79
2023/03/08 04:09:17;;;;;;;4.63;1.30;;;29.80;55.60;;;;;;5111909;28;20190;-79
2023/03/08 04:11:48;;;;;;;4.88;1.25;;;29.70;55.00;;;;;;5099314;28;20211;-78
2023/03/08 04:14:19;;;;;;;7.18;1.58;;;29.60;56.10;;;;;;5092716;28;20194;-78
2023/03/08 04:16:53;;;;;;;4.30;1.40;;;29.60;57.50;;;;;;5108110;28;20190;-78
2023/03/08 04:19:24;;;;;;;2.75;1.20;;;29.50;57.00;;;;;;5113384;28;20576;-79
2023/03/08 04:21:55;;;;;;;1.98;1.17;;;29.40;56.80;;;;;;5098568;28;20684;-78
2023/03/08 04:24:28;;;;;;;6.25;1.40;;;29.30;56.80;;;;;;5112786;28;20201;-78
2023/03/08 04:26:59;;;;;;;3.00;1.20;;;29.20;58.10;;;;;;5113161;28;20234;-77
2023/03/08 04:29:31;;;;;;;3.92;1.10;;;29.20;58.50;;;;;;5108596;28;20690;-79
2023/03/08 04:34:51;;;;;;;8.43;1.30;;;28.90;61.90;;;;;;5106306;28;20198;-78
2023/03/08 04:37:22;;;;;;;5.00;1.48;;;28.70;59.40;;;;;;5092884;28;20211;-78
2023/03/08 04:39:55;;;;;;;3.03;1.33;;;28.50;60.60;;;;;;5109557;28;20199;-77
2023/03/08 04:42:26;;;;;;;6.28;1.67;;;28.50;61.90;;;;;;5112192;28;20213;-74
2023/03/08 04:44:58;;;;;;;5.35;1.48;;;28.70;61.90;;;;;;5101922;28;20202;-77
2023/03/08 04:47:29;;;;;;;5.45;1.40;;;28.60;63.70;;;;;;5100530;28;20254;-78
2023/03/08 04:50:00;;;;;;;5.78;1.40;;;28.70;64.30;;;;;;5098898;28;20194;-78
2023/03/08 04:52:31;;;;;;;4.10;1.30;;;28.80;64.10;;;;;;5099736;28;20222;-77
2023/03/08 04:55:06;;;;;;;5.68;1.40;;;28.90;64.90;;;;;;5108668;28;20198;-77
2023/03/08 04:57:37;;;;;;;7.10;1.63;;;28.70;65.30;;;;;;5102993;28;20975;-77
2023/03/08 05:00:09;;;;;;;4.57;1.10;;;28.90;65.20;;;;;;5093347;28;20203;-77
2023/03/08 05:02:40;;;;;;;7.10;1.42;;;28.90;65.40;;;;;;5099228;28;20198;-77
2023/03/08 05:05:12;;;;;;;6.07;1.38;;;28.90;64.90;;;;;;5108235;28;20203;-78
2023/03/08 05:07:43;;;;;;;4.07;1.40;;;28.90;65.50;;;;;;5092791;28;20195;-77
2023/03/08 05:10:16;;;;;;;5.07;1.33;;;29.10;66.80;;;;;;5106420;28;20195;-78
2023/03/08 05:12:47;;;;;;;4.43;1.42;;;29.00;65.80;;;;;;5093357;28;20716;-77
2023/03/08 05:15:18;;;;;;;3.85;1.25;;;29.00;65.30;;;;;;5092333;28;20196;-78
2023/03/08 05:17:49;;;;;;;6.93;1.50;;;28.80;65.40;;;;;;5106675;28;20222;-77
2023/03/08 05:20:21;;;;;;;6.55;1.80;;;28.70;67.00;;;;;;5096572;28;20203;-78
2023/03/08 05:22:52;;;;;;;10.50;1.70;;;28.60;66.80;;;;;;5092305;28;20568;-76
2023/03/08 05:25:25;;;;;;;6.00;1.38;;;28.40;65.40;;;;;;5096273;28;20191;-77
2023/03/08 05:27:57;;;;;;;7.32;1.42;;;28.20;66.30;;;;;;5094416;28;20188;-76
2023/03/08 05:30:28;;;;;;;5.57;1.52;;;28.20;66.80;;;;;;5099175;28;20213;-77
2023/03/08 05:32:59;;;;;;;6.85;1.50;;;28.20;67.20;;;;;;5092157;28;20245;-77
2023/03/08 05:35:30;;;;;;;5.97;1.40;;;28.00;67.90;;;;;;5107160;28;20679;-77
2023/03/08 05:38:01;;;;;;;6.05;1.30;;;27.90;66.40;;;;;;5105188;28;20242;-78
2023/03/08 05:40:36;;;;;;;8.43;1.63;;;27.80;68.50;;;;;;5100996;28;20525;-77
2023/03/08 05:43:08;;;;;;;3.67;1.30;;;27.70;70.30;;;;;;5106479;28;20198;-77
2023/03/08 05:45:39;;;;;;;5.28;1.52;;;27.70;71.40;;;;;;5109941;28;20194;-78
2023/03/08 05:48:11;;;;;;;5.97;1.92;;;27.70;73.30;;;;;;5094316;28;20196;-77
2023/03/08 05:50:42;;;;;;;5.20;1.60;;;27.60;74.40;;;;;;5099133;28;20349;-78
2023/03/08 05:53:13;;;;;;;4.25;1.35;;;27.60;75.00;;;;;;5107902;28;20233;-77
2023/03/08 05:55:46;;;;;;;5.18;1.48;;;27.50;75.90;;;;;;5108653;28;20199;-78
2023/03/08 05:58:18;;;;;;;6.07;1.70;;;27.50;76.60;;;;;;5100486;28;20665;-77
2023/03/08 06:00:49;;;;;;;7.70;1.40;;;27.50;76.70;;;;;;5108053;28;20570;-78
2023/03/08 06:03:20;;;;;;;6.18;1.30;;;27.50;76.00;;;;;;5112233;28;20681;-77
2023/03/08 06:05:51;;;;;;;6.25;1.50;;;27.40;75.80;;;;;;5102479;28;20198;-77
2023/03/08 06:08:22;;;;;;;5.35;1.40;;;27.40;76.00;;;;;;5095846;28;20187;-77
2023/03/08 06:10:55;;;;;;;5.22;1.52;;;27.40;76.10;;;;;;5110919;28;20573;-78
2023/03/08 06:13:26;;;;;;;3.42;1.20;;;27.40;76.30;;;;;;5099609;28;20693;-78
2023/03/08 06:15:58;;;;;;;7.72;1.60;;;27.30;76.40;;;;;;5096583;28;20202;-77
2023/03/08 06:18:29;;;;;;;5.45;1.35;;;27.30;77.10;;;;;;5093260;28;20281;-77
2023/03/08 06:21:03;;;;;;;4.45;1.50;;;27.20;77.90;;;;;;5099619;28;20199;-78
2023/03/08 06:23:35;;;;;;;6.15;1.80;;;27.20;78.00;;;;;;5107166;28;20194;-77
2023/03/08 06:26:08;;;;;;;9.55;1.60;;;27.20;78.80;;;;;;5094593;28;20231;-77
2023/03/08 06:28:40;;;;;;;5.57;1.60;;;27.30;79.40;;;;;;5106380;28;20699;-77
2023/03/08 06:31:13;;;;;;;8.32;1.65;;;27.30;79.80;;;;;;5108682;28;20252;-77
2023/03/08 06:33:44;;;;;;;6.30;1.75;;;27.20;79.90;;;;;;5091669;28;20214;-78
2023/03/08 06:36:17;;;;;;;6.70;1.60;;;27.30;79.70;;;;;;5096100;28;20581;-77
2023/03/08 06:38:49;;;;;;;6.57;1.30;;;27.20;78.10;;;;;;5090110;28;20221;-76
2023/03/08 06:41:23;;;;;;;6.93;1.58;;;27.20;77.40;;;;;;5097011;28;20565;-77
2023/03/08 06:43:54;;;;;;;4.80;1.55;;;27.20;77.80;;;;;;5111455;28;20221;-76
2023/03/08 06:46:25;;;;;;;4.25;1.42;;;27.10;77.80;;;;;;5095263;28;20203;-78
2023/03/08 06:48:57;;;;;;;5.30;1.40;;;27.10;77.80;;;;;;5098158;28;20195;-79
2023/03/08 06:51:28;;;;;;;7.00;1.60;;;27.00;77.80;;;;;;5093795;28;20244;-77
2023/03/08 06:54:01;;;;;;;3.70;1.30;;;26.90;78.70;;;;;;5096948;28;20218;-77
2023/03/08 06:56:34;;;;;;;7.63;1.55;;;27.00;78.40;;;;;;5104127;28;20195;-77
2023/03/08 06:59:05;;;;;;;5.43;1.30;;;27.00;79.40;;;;;;5106252;28;20202;-76
2023/03/08 07:01:36;;;;;;;7.90;1.52;;;27.10;80.30;;;;;;5105964;28;20673;-77
2023/03/08 07:04:07;;;;;;;6.85;1.45;;;27.10;80.50;;;;;;5108790;28;20205;-77
2023/03/08 07:06:38;;;;;;;7.20;1.25;;;27.20;81.00;;;;;;5099903;28;20230;-77
2023/03/08 07:09:09;;;;;;;4.57;1.23;;;27.60;80.20;;;;;;5091912;28;20256;-77
2023/03/08 07:11:43;;;;;;;5.43;1.42;;;28.40;78.50;;;;;;5104965;28;20665;-76
2023/03/08 07:14:14;;;;;;;7.20;1.65;;;29.20;75.80;;;;;;5100175;28;20202;-78
2023/03/08 07:16:45;;;;;;;5.22;1.40;;;29.90;73.40;;;;;;5094576;28;20683;-77
2023/03/08 07:19:16;;;;;;;6.88;1.60;;;30.30;72.00;;;;;;5103402;28;20188;-78
2023/03/08 07:21:48;;;;;;;4.88;1.38;;;30.90;69.70;;;;;;5095371;28;20206;-78
2023/03/08 07:24:19;;;;;;;6.25;1.33;;;31.00;70.00;;;;;;5108989;28;20195;-78
2023/03/08 07:26:53;;;;;;;6.35;1.60;;;31.10;68.70;;;;;;5108961;28;20236;-78
2023/03/08 07:29:24;;;;;;;5.03;1.55;;;31.40;67.80;;;;;;5092875;28;20568;-78
2023/03/08 07:31:55;;;;;;;5.03;1.42;;;31.40;67.70;;;;;;5104451;28;20653;-79
2023/03/08 07:34:26;;;;;;;7.25;1.42;;;31.30;68.00;;;;;;5104576;28;20613;-77
2023/03/08 07:36:57;;;;;;;4.82;1.40;;;31.20;67.90;;;;;;5093549;28;20567;-77
2023/03/08 07:39:28;;;;;;;8.25;1.50;;;31.10;68.80;;;;;;5106948;28;20186;-79
2023/03/08 07:42:01;;;;;;;5.63;1.27;;;30.90;70.50;;;;;;5104195;28;20217;-78
2023/03/08 07:44:32;;;;;;;6.30;1.52;;;30.50;71.50;;;;;;5099800;28;20288;-78
2023/03/08 07:47:03;;;;;;;5.75;1.75;;;30.20;72.90;;;;;;5100362;28;20207;-79
2023/03/08 07:49:39;;;;;;;4.18;1.30;;;29.80;73.70;;;;;;5124986;28;20169;-79
2023/03/08 07:52:13;;;;;;;3.10;1.15;;;29.50;74.80;;;;;;5094023;28;20712;-79
2023/03/08 07:54:46;;;;;;;6.93;1.48;;;29.10;76.00;;;;;;5096143;28;20187;-79
2023/03/08 07:57:19;;;;;;;6.25;1.40;;;28.90;77.80;;;;;;5108437;28;20199;-78
2023/03/08 07:59:51;;;;;;;5.03;1.45;;;28.60;79.80;;;;;;5098851;28;20666;-80
2023/03/08 08:02:22;;;;;;;5.22;1.73;;;28.30;82.50;;;;;;5111451;28;20232;-78
2023/03/08 08:04:54;;;;;;;8.30;1.50;;;28.10;84.00;;;;;;5113434;28;20198;-78
2023/03/08 08:07:25;;;;;;;4.15;1.48;;;28.00;85.70;;;;;;5109688;28;20199;-79
2023/03/08 08:09:57;;;;;;;5.20;1.63;;;27.80;87.30;;;;;;5103944;28;20206;-77
2023/03/08 08:12:30;;;;;;;5.13;1.30;;;27.50;90.00;;;;;;5097018;28;20211;-75
2023/03/08 08:15:01;;;;;;;4.88;1.55;;;27.40;91.10;;;;;;5095999;28;20198;-76
2023/03/08 08:17:32;;;;;;;7.00;1.83;;;27.30;92.30;;;;;;5096279;28;20227;-76
2023/03/08 08:20:04;;;;;;;8.45;1.67;;;27.20;93.60;;;;;;5112496;28;20195;-75
2023/03/08 08:22:37;;;;;;;6.68;1.42;;;27.10;94.60;;;;;;5109562;28;20205;-76
2023/03/08 08:25:10;;;;;;;6.13;1.80;;;26.90;95.70;;;;;;5109252;28;20198;-77
2023/03/08 08:27:43;;;;;;;5.93;1.75;;;26.80;97.00;;;;;;5114024;28;20202;-74
2023/03/08 08:30:16;;;;;;;7.53;1.83;;;26.70;98.10;;;;;;5112766;28;20190;-76
2023/03/08 08:32:47;;;;;;;6.22;1.63;;;26.60;99.70;;;;;;5111621;27;20226;-76
2023/03/08 08:35:18;;;;;;;4.30;1.40;;;26.50;99.90;;;;;;5106182;28;20201;-76
2023/03/08 08:37:52;;;;;;;5.22;1.70;;;26.40;99.90;;;;;;5113305;28;20194;-76
2023/03/08 08:40:23;;;;;;;7.22;1.45;;;26.40;99.90;;;;;;5106100;27;20201;-76
2023/03/08 08:42:56;;;;;;;5.70;1.80;;;26.30;99.90;;;;;;5111655;28;20203;-78
2023/03/08 08:45:27;;;;;;;4.93;1.70;;;26.20;99.90;;;;;;5103581;28;20195;-77
2023/03/08 08:47:58;;;;;;;4.75;1.40;;;26.20;99.90;;;;;;5097943;28;20210;-76
2023/03/08 08:50:30;;;;;;;5.40;1.63;;;26.10;99.90;;;;;;5112605;28;20198;-77
2023/03/08 08:53:01;;;;;;;6.53;2.08;;;26.20;99.90;;;;;;5107307;27;20222;-77
2023/03/08 08:55:32;;;;;;;10.55;1.98;;;26.10;99.90;;;;;;5104337;28;20187;-76
2023/03/08 08:58:05;;;;;;;5.93;1.73;;;26.10;99.90;;;;;;5092648;28;20199;-78
2023/03/08 09:00:37;;;;;;;5.90;1.65;;;26.10;99.90;;;;;;5100542;28;20199;-76
2023/03/08 09:03:08;;;;;;;7.00;1.60;;;26.00;99.90;;;;;;5111763;28;20672;-77
2023/03/08 09:05:42;;;;;;;6.63;1.60;;;26.00;99.90;;;;;;5110610;28;20194;-76
2023/03/08 09:08:14;;;;;;;6.45;1.65;;;26.00;99.90;;;;;;5108113;28;20194;-76
2023/03/08 09:10:46;;;;;;;8.75;1.90;;;26.00;99.90;;;;;;5106565;28;20191;-76
2023/03/08 09:13:19;;;;;;;8.60;1.92;;;26.00;99.90;;;;;;5110447;28;20218;-76
2023/03/08 09:15:50;;;;;;;4.68;1.63;;;26.00;99.90;;;;;;5110967;27;20706;-76
2023/03/08 09:18:21;;;;;;;4.05;1.60;;;26.00;99.90;;;;;;5112693;28;20707;-77
2023/03/08 09:20:52;;;;;;;5.03;1.80;;;26.00;99.90;;;;;;5099978;28;20554;-77
2023/03/08 09:23:24;;;;;;;5.82;1.88;;;25.90;99.90;;;;;;5101982;28;20195;-77
2023/03/08 09:26:03;;;;;;;5.93;1.90;;;25.90;99.90;;;;;;5098100;28;20218;-77
2023/03/08 09:28:36;;;;;;;9.40;2.35;;;25.80;99.90;;;;;;5111614;28;20198;-77
2023/03/08 09:31:11;;;;;;;4.65;1.98;;;25.80;99.90;;;;;;5111466;28;20205;-77
2023/03/08 09:33:43;;;;;;;6.68;2.10;;;25.80;99.90;;;;;;5111230;28;20722;-76
2023/03/08 09:36:15;;;;;;;8.43;2.95;;;25.80;99.90;;;;;;5104788;28;20221;-76
2023/03/08 09:38:46;;;;;;;7.53;2.28;;;25.70;99.90;;;;;;5093902;28;20233;-76
2023/03/08 09:41:41;;;;;;;9.65;2.47;;;25.70;99.90;;;;;;5099513;28;20653;-77
2023/03/08 09:44:42;;;;;;;5.45;2.35;;;25.70;99.90;;;;;;5101651;28;20198;-77
2023/03/08 09:47:23;;;;;;;6.07;2.25;;;25.70;99.90;;;;;;5106265;28;20199;-76
2023/03/08 09:49:57;;;;;;;14.30;9.38;;;25.70;99.90;;;;;;5112065;28;20218;-76
2023/03/08 09:52:34;;;;;;;11.55;4.38;;;25.70;99.90;;;;;;5111105;28;20194;-79
2023/03/08 09:55:07;;;;;;;6.90;2.65;;;25.70;99.90;;;;;;5111089;28;20190;-78
2023/03/08 09:57:43;;;;;;;10.93;4.60;;;25.60;99.90;;;;;;5109655;28;20202;-78
2023/03/08 10:00:24;;;;;;;9.15;3.60;;;25.60;99.90;;;;;;5104018;28;20195;-76
2023/03/08 10:03:05;;;;;;;5.70;2.22;;;25.60;99.90;;;;;;5110801;28;20198;-76
2023/03/08 10:05:42;;;;;;;8.60;1.92;;;25.40;99.90;;;;;;5108902;28;20269;-76
2023/03/08 10:08:18;;;;;;;4.13;1.75;;;25.40;99.90;;;;;;5099663;28;20198;-78
2023/03/08 10:10:55;;;;;;;9.18;2.40;;;25.40;99.90;;;;;;5095570;28;20258;-78
2023/03/08 10:13:34;;;;;;;8.43;2.30;;;25.40;99.90;;;;;;5096206;28;20214;-78
2023/03/08 10:16:21;;;;;;;6.45;2.08;;;25.40;99.90;;;;;;5109273;28;20194;-78
2023/03/08 10:18:55;;;;;;;7.00;2.00;;;25.40;99.90;;;;;;5106616;28;20199;-78
2023/03/08 10:21:30;;;;;;;4.55;1.85;;;25.30;99.90;;;;;;5109007;28;20205;-77
2023/03/08 10:24:06;;;;;;;6.32;1.90;;;25.40;99.90;;;;;;5090796;28;20213;-78
2023/03/08 10:26:37;;;;;;;6.72;1.92;;;25.40;99.90;;;;;;5101379;28;20234;-77
2023/03/08 10:29:08;;;;;;;8.48;2.15;;;25.40;99.90;;;;;;5106468;28;20197;-78
2023/03/08 10:31:45;;;;;;;6.07;1.98;;;25.40;99.90;;;;;;5107831;28;20721;-78
2023/03/08 10:34:18;;;;;;;7.32;1.75;;;25.30;99.90;;;;;;5090777;28;20682;-78
2023/03/08 10:36:54;;;;;;;7.18;1.98;;;25.30;99.90;;;;;;5090421;28;20225;-77
2023/03/08 10:39:25;;;;;;;6.97;1.70;;;25.20;99.90;;;;;;5104046;28;20224;-76
2023/03/08 10:41:58;;;;;;;7.68;1.98;;;25.20;99.90;;;;;;5110739;28;20195;-77
2023/03/08 10:44:35;;;;;;;4.63;1.90;;;25.30;99.90;;;;;;5111163;28;20663;-78
2023/03/08 10:47:22;;;;;;;6.22;2.17;;;25.30;99.90;;;;;;5097310;28;20237;-78
2023/03/08 10:50:05;;;;;;;6.50;2.20;;;25.30;99.90;;;;;;5089712;28;20222;-78
2023/03/08 10:52:36;;;;;;;8.00;2.47;;;25.40;99.90;;;;;;5090494;28;20195;-78
2023/03/08 10:55:13;;;;;;;8.05;2.13;;;25.30;99.90;;;;;;5090739;28;20207;-77
2023/03/08 10:57:51;;;;;;;5.55;1.92;;;25.30;99.90;;;;;;5114091;28;20277;-77
2023/03/08 11:00:36;;;;;;;6.88;2.25;;;25.20;99.90;;;;;;5098433;28;20187;-78
2023/03/08 11:03:16;;;;;;;9.55;2.08;;;25.20;99.90;;;;;;5100761;28;20566;-78
2023/03/08 11:05:59;;;;;;;7.30;1.80;;;25.30;99.90;;;;;;5095210;28;20202;-76
2023/03/08 11:08:32;;;;;;;6.70;2.00;;;25.20;99.90;;;;;;5112911;28;20653;-78
2023/03/08 11:11:11;;;;;;;5.43;1.42;;;25.20;99.90;;;;;;5113183;28;20211;-78
2023/03/08 11:13:45;;;;;;;5.13;1.67;;;25.20;99.90;;;;;;5093481;28;20222;-78
2023/03/08 11:16:39;;;;;;;5.50;1.75;;;25.30;99.90;;;;;;5093807;28;20203;-77
2023/03/08 11:19:28;;;;;;;6.25;1.75;;;25.20;99.90;;;;;;5094371;28;20199;-77
2023/03/08 11:22:07;;;;;;;6.72;1.83;;;25.20;99.90;;;;;;5096256;28;20199;-76
2023/03/08 11:24:56;;;;;;;8.50;1.80;;;25.20;99.90;;;;;;5092982;28;20203;-78
2023/03/08 11:27:39;;;;;;;7.22;2.00;;;25.20;99.90;;;;;;5093621;28;20223;-78
2023/03/08 11:30:21;;;;;;;8.88;1.65;;;25.20;99.90;;;;;;5098880;28;20195;-77
2023/03/08 11:33:08;;;;;;;6.30;1.73;;;25.10;99.90;;;;;;5113740;28;20191;-77
2023/03/08 11:35:47;;;;;;;7.07;1.88;;;25.10;99.90;;;;;;5107270;27;20206;-78
2023/03/08 11:38:24;;;;;;;6.03;1.40;;;25.10;99.90;;;;;;5107284;28;20203;-76
2023/03/08 11:41:03;;;;;;;5.95;1.50;;;25.00;99.90;;;;;;5113589;28;20222;-76
2023/03/08 11:43:58;;;;;;;2.72;1.17;;;25.00;99.90;;;;;;5115392;28;20221;-77
2023/03/08 11:46:39;;;;;;;5.55;1.13;;;24.90;99.90;;;;;;5103971;28;20195;-77
2023/03/08 11:49:26;;;;;;;4.03;1.40;;;24.90;99.90;;;;;;5095723;28;20542;-78
2023/03/08 11:52:08;;;;;;;5.45;0.98;;;25.00;99.90;;;;;;5105649;28;20596;-76
2023/03/08 11:54:51;;;;;;;1.98;0.70;;;24.90;99.90;;;;;;5108009;28;20589;-76
2023/03/08 11:57:22;;;;;;;4.13;0.90;;;24.90;99.90;;;;;;5110459;28;20571;-77
2023/03/08 11:59:59;;;;;;;3.58;0.98;;;24.90;99.90;;;;;;5110533;28;20574;-77
2023/03/08 12:02:33;;;;;;;3.58;0.90;;;24.90;99.90;;;;;;5097515;28;20199;-77
2023/03/08 12:05:11;;;;;;;1.77;0.73;;;24.90;99.90;;;;;;5113727;28;20205;-77
2023/03/08 12:07:49;;;;;;;2.13;0.70;;;24.80;99.90;;;;;;5095386;28;20202;-77
2023/03/08 12:10:24;;;;;;;2.13;0.65;;;24.90;99.90;;;;;;5111351;28;20572;-77
2023/03/08 12:13:00;;;;;;;3.40;0.70;;;24.80;99.90;;;;;;5104075;28;20194;-77
2023/03/08 12:15:35;;;;;;;4.03;0.80;;;24.90;99.90;;;;;;5111338;28;20195;-77
2023/03/08 12:18:15;;;;;;;4.28;1.10;;;24.80;99.90;;;;;;5094369;28;20215;-77
2023/03/08 12:20:47;;;;;;;3.22;0.80;;;24.80;99.90;;;;;;5110766;28;20187;-76
2023/03/08 12:23:30;;;;;;;1.45;0.82;;;24.80;99.80;;;;;;5115779;27;20195;-77
2023/03/08 12:26:08;;;;;;;2.88;0.82;;;24.70;99.90;;;;;;5109135;28;20223;-79
2023/03/08 12:28:44;;;;;;;4.22;0.80;;;24.70;99.80;;;;;;5098313;28;20605;-77
2023/03/08 12:31:25;;;;;;;1.58;0.80;;;24.70;96.20;;;;;;5105513;28;20190;-76
2023/03/08 12:33:58;;;;;;;2.90;0.60;;;24.70;96.70;;;;;;5113412;28;20222;-77
2023/03/08 12:36:40;;;;;;;3.88;0.80;;;24.60;94.50;;;;;;5108299;28;20203;-76
2023/03/08 12:39:28;;;;;;;3.15;0.80;;;24.60;92.70;;;;;;5093175;28;20555;-77
2023/03/08 12:42:16;;;;;;;3.10;0.75;;;24.60;91.40;;;;;;5096669;28;20260;-77
2023/03/08 12:44:47;;;;;;;1.83;0.50;;;24.60;91.50;;;;;;5102288;28;20205;-77
2023/03/08 12:47:24;;;;;;;2.85;0.60;;;24.60;94.00;;;;;;5105911;27;20677;-77
2023/03/08 12:49:58;;;;;;;3.22;0.70;;;24.70;92.80;;;;;;5112970;28;20195;-77
2023/03/08 12:52:33;;;;;;;3.42;0.80;;;24.60;92.50;;;;;;5097822;28;20203;-76
2023/03/08 12:55:10;;;;;;;2.97;0.98;;;24.50;91.60;;;;;;5104120;28;20584;-77
2023/03/08 12:57:48;;;;;;;3.10;0.85;;;24.50;92.10;;;;;;5111439;28;20224;-76
2023/03/08 13:00:31;;;;;;;5.50;1.10;;;24.60;92.10;;;;;;5110035;27;20198;-77
2023/03/08 13:03:27;;;;;;;5.72;0.90;;;24.50;93.30;;;;;;5099735;28;20195;-76
2023/03/08 13:05:58;;;;;;;3.05;0.98;;;24.50;94.20;;;;;;5092183;28;20208;-77
2023/03/08 13:08:41;;;;;;;2.45;1.02;;;24.50;95.80;;;;;;5091865;28;20206;-76
2023/03/08 13:11:16;;;;;;;3.40;1.00;;;24.50;96.60;;;;;;5094976;28;20199;-75
2023/03/08 13:13:53;;;;;;;3.75;0.80;;;24.40;97.30;;;;;;5113388;28;20594;-76
2023/03/08 13:16:36;;;;;;;4.20;0.88;;;24.40;99.20;;;;;;5110146;28;20248;-78
2023/03/08 13:19:25;;;;;;;2.45;1.15;;;24.40;99.90;;;;;;5092409;28;20199;-77
2023/03/08 13:22:04;;;;;;;3.97;1.20;;;24.30;99.90;;;;;;5092236;28;20188;-76